createdAt,value
2023-04-26T00:01:39.065Z,11.32
2023-04-26T00:04:06.351Z,11.43
2023-04-26T00:06:35.143Z,11.93
2023-04-26T00:09:04.431Z,12.60
2023-04-26T00:11:37.541Z,13.48
2023-04-26T00:14:04.700Z,10.18
2023-04-26T00:16:31.745Z,12.00
2023-04-26T00:18:58.810Z,10.80
2023-04-26T00:21:26.248Z,10.23
2023-04-26T00:23:59.336Z,9.07
2023-04-26T00:26:41.418Z,10.27
2023-04-26T00:29:14.220Z,9.05
2023-04-26T00:31:52.699Z,10.93
2023-04-26T00:34:19.885Z,7.15
2023-04-26T00:36:46.934Z,8.05
2023-04-26T00:39:16.054Z,9.57
2023-04-26T00:41:43.204Z,6.90
2023-04-26T00:44:10.234Z,6.95
2023-04-26T00:46:37.399Z,6.88
2023-04-26T00:49:04.658Z,6.55
2023-04-26T00:51:31.692Z,6.60
2023-04-26T00:53:59.542Z,6.88
2023-04-26T00:56:26.637Z,7.07
2023-04-26T00:58:54.161Z,7.63
2023-04-26T01:01:21.763Z,6.30
2023-04-26T01:03:49.140Z,6.68
2023-04-26T01:06:16.476Z,7.90
2023-04-26T01:08:43.909Z,8.57
2023-04-26T01:11:11.073Z,10.00
2023-04-26T01:13:38.415Z,8.07
2023-04-26T01:16:08.086Z,6.85
2023-04-26T01:18:36.313Z,6.93
2023-04-26T01:21:04.409Z,7.88
2023-04-26T01:23:32.189Z,6.85
2023-04-26T01:25:59.276Z,7.05
2023-04-26T01:28:26.912Z,7.13
2023-04-26T01:30:54.115Z,8.73
2023-04-26T01:33:21.407Z,9.07
2023-04-26T01:35:48.393Z,9.80
2023-04-26T01:38:16.358Z,8.63
2023-04-26T01:40:46.343Z,11.65
2023-04-26T01:43:13.669Z,8.02
2023-04-26T01:45:41.499Z,8.27
2023-04-26T01:48:09.057Z,9.32
2023-04-26T01:50:38.336Z,10.68
2023-04-26T01:53:05.496Z,14.40
2023-04-26T01:55:33.946Z,13.20
2023-04-26T01:58:01.434Z,12.48
2023-04-26T02:00:31.524Z,9.50
2023-04-26T02:02:58.956Z,10.93
2023-04-26T02:05:26.303Z,10.68
2023-04-26T02:07:53.472Z,10.73
2023-04-26T02:10:20.505Z,12.45
2023-04-26T02:12:47.786Z,10.40
2023-04-26T02:15:15.455Z,13.30
2023-04-26T02:17:43.070Z,12.20
2023-04-26T02:20:10.605Z,13.68
2023-04-26T02:22:37.728Z,12.80
2023-04-26T02:25:05.632Z,10.73
2023-04-26T02:27:33.154Z,12.20
2023-04-26T02:30:00.221Z,12.32
2023-04-26T02:32:27.340Z,13.23
2023-04-26T02:34:54.373Z,13.82
2023-04-26T02:37:22.310Z,13.02
2023-04-26T02:39:55.096Z,12.98
2023-04-26T02:42:22.163Z,12.15
2023-04-26T02:44:49.255Z,12.40
2023-04-26T02:47:16.942Z,13.02
2023-04-26T02:49:43.966Z,11.85
2023-04-26T02:52:11.035Z,14.60
2023-04-26T02:54:38.047Z,12.60
2023-04-26T02:57:05.313Z,14.35
2023-04-26T02:59:32.722Z,12.07
2023-04-26T03:01:59.859Z,11.30
2023-04-26T03:04:28.236Z,11.93
2023-04-26T03:06:55.219Z,11.25
2023-04-26T03:09:22.384Z,10.48
2023-04-26T03:11:57.637Z,11.95
2023-04-26T03:14:25.103Z,9.75
2023-04-26T03:16:52.401Z,12.10
2023-04-26T03:19:19.645Z,9.95
2023-04-26T03:21:46.715Z,10.65
2023-04-26T03:24:13.764Z,10.68
2023-04-26T03:26:40.851Z,13.50
2023-04-26T03:29:08.653Z,8.07
2023-04-26T03:31:36.041Z,8.00
2023-04-26T03:34:03.078Z,9.82
2023-04-26T03:36:30.157Z,9.02
2023-04-26T03:38:57.332Z,8.43
2023-04-26T03:41:25.612Z,8.43
2023-04-26T03:43:52.761Z,7.05
2023-04-26T03:46:19.884Z,8.43
2023-04-26T03:48:47.001Z,8.80
2023-04-26T03:51:14.102Z,6.47
2023-04-26T03:53:42.012Z,7.65
2023-04-26T03:56:09.053Z,10.45
2023-04-26T03:58:36.413Z,8.38
2023-04-26T04:01:05.071Z,11.90
2023-04-26T04:03:32.281Z,6.82
2023-04-26T04:05:59.541Z,8.18
2023-04-26T04:08:29.707Z,5.97
2023-04-26T04:10:57.114Z,5.47
2023-04-26T04:13:24.167Z,6.55
2023-04-26T04:15:51.968Z,7.50
2023-04-26T04:18:19.117Z,9.68
2023-04-26T04:20:46.434Z,7.13
2023-04-26T04:23:13.546Z,7.95
2023-04-26T04:25:41.491Z,12.07
2023-04-26T04:28:08.829Z,8.95
2023-04-26T04:30:35.910Z,7.07
2023-04-26T04:33:03.852Z,8.02
2023-04-26T04:35:33.790Z,10.00
2023-04-26T04:38:01.917Z,8.60
2023-04-26T04:40:29.926Z,7.95
2023-04-26T04:42:57.195Z,7.85
2023-04-26T04:45:24.222Z,10.93
2023-04-26T04:47:54.387Z,11.55
2023-04-26T04:50:21.913Z,9.15
2023-04-26T04:52:48.968Z,9.07
2023-04-26T04:55:16.922Z,8.45
2023-04-26T04:57:44.001Z,11.30
2023-04-26T05:00:15.958Z,10.07
2023-04-26T05:02:43.190Z,12.55
2023-04-26T05:05:11.337Z,9.82
2023-04-26T05:07:38.502Z,10.15
2023-04-26T05:10:05.968Z,12.20
2023-04-26T05:12:33.845Z,10.52
2023-04-26T05:15:01.152Z,9.43
2023-04-26T05:17:28.299Z,9.52
2023-04-26T05:19:55.558Z,9.20
2023-04-26T05:22:22.645Z,13.93
2023-04-26T05:24:49.860Z,8.65
2023-04-26T05:27:17.059Z,8.80
2023-04-26T05:29:44.151Z,8.60
2023-04-26T05:32:11.287Z,10.60
2023-04-26T05:34:39.143Z,9.43
2023-04-26T05:37:06.173Z,9.52
2023-04-26T05:39:33.235Z,11.63
2023-04-26T05:42:00.320Z,10.10
2023-04-26T05:44:27.377Z,9.50
2023-04-26T05:46:54.503Z,10.13
2023-04-26T05:49:21.963Z,10.52
2023-04-26T05:51:49.183Z,8.30
2023-04-26T05:54:16.312Z,10.27
2023-04-26T05:56:43.466Z,10.50
2023-04-26T05:59:10.714Z,10.18
2023-04-26T06:01:37.797Z,8.55
2023-04-26T06:04:06.743Z,9.23
2023-04-26T06:06:34.254Z,10.00
2023-04-26T06:09:01.896Z,8.43
2023-04-26T06:11:29.071Z,8.45
2023-04-26T06:13:56.234Z,10.10
2023-04-26T06:16:23.508Z,10.07
2023-04-26T06:18:50.558Z,13.32
2023-04-26T06:21:20.590Z,16.23
2023-04-26T06:23:48.004Z,13.23
2023-04-26T06:26:15.618Z,10.82
2023-04-26T06:28:42.834Z,12.10
2023-04-26T06:31:10.479Z,10.40
2023-04-26T06:33:37.695Z,12.07
2023-04-26T06:36:05.430Z,8.88
2023-04-26T06:38:32.831Z,9.95
2023-04-26T06:41:00.129Z,9.60
2023-04-26T06:43:28.098Z,10.00
2023-04-26T06:45:55.785Z,8.63
2023-04-26T06:48:23.158Z,11.00
2023-04-26T06:50:50.314Z,11.30
2023-04-26T06:53:17.430Z,9.35
2023-04-26T06:55:44.833Z,9.40
2023-04-26T06:58:11.920Z,7.72
2023-04-26T07:00:39.405Z,11.18
2023-04-26T07:03:06.935Z,11.25
2023-04-26T07:05:34.100Z,10.52
2023-04-26T07:08:02.385Z,10.82
2023-04-26T07:10:29.717Z,12.93
2023-04-26T07:12:56.938Z,13.35
2023-04-26T07:15:24.151Z,9.82
2023-04-26T07:17:51.325Z,10.70
2023-04-26T07:20:19.972Z,11.05
2023-04-26T07:22:47.774Z,9.43
2023-04-26T07:25:14.979Z,9.60
2023-04-26T07:27:43.823Z,10.60
2023-04-26T07:30:26.644Z,9.23
2023-04-26T07:33:03.789Z,12.57
2023-04-26T07:35:31.061Z,17.80
2023-04-26T07:37:58.253Z,14.32
2023-04-26T07:40:26.366Z,11.57
2023-04-26T07:42:54.366Z,7.45
2023-04-26T07:45:21.744Z,11.63
2023-04-26T07:47:52.180Z,8.52
2023-04-26T07:50:19.685Z,10.45
2023-04-26T07:52:47.093Z,9.18
2023-04-26T07:55:15.347Z,7.75
2023-04-26T07:57:43.600Z,17.17
2023-04-26T08:00:11.781Z,8.27
2023-04-26T08:02:45.286Z,13.75
2023-04-26T08:05:13.946Z,10.85
2023-04-26T08:07:42.048Z,10.57
2023-04-26T08:10:12.609Z,14.00
2023-04-26T08:12:39.736Z,14.73
2023-04-26T08:15:07.270Z,10.80
2023-04-26T08:17:35.112Z,10.88
2023-04-26T08:20:02.400Z,8.57
2023-04-26T08:22:29.858Z,12.95
2023-04-26T08:24:58.159Z,13.30
2023-04-26T08:29:59.138Z,9.55
2023-04-26T08:32:26.676Z,11.15
2023-04-26T08:34:53.979Z,10.20
2023-04-26T08:37:21.085Z,9.20
2023-04-26T08:39:48.125Z,7.00
2023-04-26T08:42:17.061Z,9.68
2023-04-26T08:44:45.383Z,9.98
2023-04-26T08:47:51.268Z,7.82
2023-04-26T08:50:22.447Z,6.97
2023-04-26T08:52:51.612Z,31.25
2023-04-26T08:55:20.333Z,9.07
2023-04-26T08:57:48.313Z,6.10
2023-04-26T09:00:16.600Z,5.95
2023-04-26T09:02:48.114Z,4.82
2023-04-26T09:05:15.429Z,6.47
2023-04-26T09:08:25.134Z,7.95
2023-04-26T09:10:52.247Z,7.50
2023-04-26T09:13:19.793Z,5.15
2023-04-26T09:18:23.244Z,6.47
2023-04-26T09:21:07.955Z,5.82
2023-04-26T09:23:35.528Z,5.53
2023-04-26T09:26:21.920Z,15.07
2023-04-26T09:28:51.836Z,22.75
2023-04-26T09:31:39.792Z,8.88
2023-04-26T09:34:06.911Z,8.30
2023-04-26T09:36:35.054Z,8.32
2023-04-26T09:39:02.275Z,4.68
2023-04-26T09:41:44.023Z,6.22
2023-04-26T09:44:26.669Z,8.05
2023-04-26T09:47:01.967Z,7.78
2023-04-26T09:49:31.714Z,7.97
2023-04-26T09:52:05.986Z,5.47
2023-04-26T09:54:45.335Z,6.70
2023-04-26T09:57:13.604Z,8.85
2023-04-26T09:59:48.273Z,9.15
2023-04-26T10:02:26.576Z,6.45
2023-04-26T10:04:55.019Z,9.73
2023-04-26T10:07:23.325Z,4.70
2023-04-26T10:09:50.622Z,7.78
2023-04-26T10:12:19.222Z,4.25
2023-04-26T10:14:46.774Z,8.05
2023-04-26T10:17:14.191Z,8.82
2023-04-26T10:19:44.321Z,5.55
2023-04-26T10:22:33.978Z,12.90
2023-04-26T10:25:01.360Z,6.38
2023-04-26T10:27:43.907Z,4.35
2023-04-26T10:30:14.853Z,7.78
2023-04-26T10:32:57.390Z,8.68
2023-04-26T10:35:30.585Z,8.48
2023-04-26T10:38:04.143Z,7.60
2023-04-26T10:40:41.545Z,6.88
2023-04-26T10:43:26.524Z,6.05
2023-04-26T10:45:57.579Z,5.82
2023-04-26T10:48:31.663Z,10.95
2023-04-26T10:51:05.747Z,15.43
2023-04-26T10:53:34.627Z,4.07
2023-04-26T10:56:01.806Z,7.32
2023-04-26T10:58:35.241Z,6.18
2023-04-26T11:01:09.905Z,6.97
2023-04-26T11:03:38.258Z,5.65
2023-04-26T11:06:15.667Z,6.47
2023-04-26T11:09:08.607Z,9.30
2023-04-26T11:11:35.746Z,11.98
2023-04-26T11:14:03.151Z,7.30
2023-04-26T11:16:30.474Z,7.90
2023-04-26T11:18:57.728Z,5.35
2023-04-26T11:21:27.102Z,6.43
2023-04-26T11:24:12.811Z,8.80
2023-04-26T11:26:39.955Z,5.95
2023-04-26T11:29:13.773Z,4.10
2023-04-26T11:31:40.996Z,5.13
2023-04-26T11:34:08.559Z,5.90
2023-04-26T11:36:38.245Z,6.43
2023-04-26T11:39:06.975Z,4.73
2023-04-26T11:41:34.298Z,5.53
2023-04-26T11:44:02.087Z,6.30
2023-04-26T11:46:29.452Z,9.32
2023-04-26T11:48:56.766Z,7.70
2023-04-26T11:51:24.445Z,7.25
2023-04-26T11:53:52.074Z,7.22
2023-04-26T11:56:20.454Z,6.25
2023-04-26T11:58:51.691Z,6.93
2023-04-26T12:01:23.824Z,7.60
2023-04-26T12:03:55.625Z,8.05
2023-04-26T12:06:33.987Z,5.35
2023-04-26T12:09:07.121Z,4.88
2023-04-26T12:11:34.427Z,4.18
2023-04-26T12:14:01.918Z,5.97
2023-04-26T12:16:29.136Z,4.63
2023-04-26T12:18:59.243Z,8.85
2023-04-26T12:21:30.417Z,6.75
2023-04-26T12:23:58.213Z,6.25
2023-04-26T12:26:44.518Z,7.00
2023-04-26T12:29:11.891Z,4.78
2023-04-26T12:31:39.100Z,4.03
2023-04-26T12:34:06.372Z,5.57
2023-04-26T12:36:33.611Z,4.55
2023-04-26T12:39:03.955Z,9.90
2023-04-26T12:41:31.205Z,4.70
2023-04-26T12:43:58.742Z,7.28
2023-04-26T12:46:26.409Z,5.72
2023-04-26T12:48:58.558Z,6.55
2023-04-26T12:51:25.747Z,4.63
2023-04-26T12:53:53.320Z,6.25
2023-04-26T12:56:20.935Z,7.70
2023-04-26T12:58:53.375Z,3.88
2023-04-26T13:01:22.092Z,5.63
2023-04-26T13:03:49.580Z,7.60
2023-04-26T13:06:17.384Z,4.43
2023-04-26T13:08:44.743Z,5.50
2023-04-26T13:11:11.924Z,10.23
2023-04-26T13:13:44.708Z,5.82
2023-04-26T13:16:15.598Z,5.50
2023-04-26T13:19:05.602Z,8.52
2023-04-26T13:21:33.158Z,7.53
2023-04-26T13:24:00.722Z,8.85
2023-04-26T13:26:28.186Z,4.38
2023-04-26T13:28:55.862Z,5.47
2023-04-26T13:31:23.193Z,7.38
2023-04-26T13:33:58.816Z,7.40
2023-04-26T13:36:26.470Z,6.13
2023-04-26T13:38:53.825Z,5.20
2023-04-26T13:41:24.793Z,6.88
2023-04-26T13:43:52.414Z,5.63
2023-04-26T13:46:19.592Z,7.15
2023-04-26T13:48:46.665Z,5.78
2023-04-26T13:51:14.705Z,6.30
2023-04-26T13:53:41.896Z,4.20
2023-04-26T13:56:09.719Z,4.80
2023-04-26T13:58:36.906Z,5.50
2023-04-26T14:01:04.496Z,7.72
2023-04-26T14:03:32.811Z,5.93
2023-04-26T14:06:00.155Z,4.22
2023-04-26T14:08:27.370Z,5.70
2023-04-26T14:10:54.571Z,4.70
2023-04-26T14:13:22.210Z,8.27
2023-04-26T14:15:49.716Z,3.83
2023-04-26T14:18:17.698Z,5.88
2023-04-26T14:20:45.233Z,6.80
2023-04-26T14:23:12.473Z,5.47
2023-04-26T14:25:39.795Z,6.15
2023-04-26T14:28:08.546Z,5.68
2023-04-26T14:30:35.745Z,6.55
2023-04-26T14:33:03.271Z,5.93
2023-04-26T14:35:30.380Z,5.07
2023-04-26T14:37:57.550Z,5.00
2023-04-26T14:40:25.396Z,4.93
2023-04-26T14:42:52.671Z,5.30
2023-04-26T14:45:22.265Z,8.27
2023-04-26T14:47:52.713Z,6.93
2023-04-26T14:50:22.813Z,7.93
2023-04-26T14:52:49.942Z,5.63
2023-04-26T14:55:22.505Z,7.40
2023-04-26T14:57:50.126Z,6.78
2023-04-26T15:00:20.829Z,6.13
2023-04-26T15:02:48.288Z,7.53
2023-04-26T15:05:18.996Z,8.73
2023-04-26T15:11:48.093Z,9.50
2023-04-26T15:14:15.325Z,5.10
2023-04-26T15:16:45.334Z,9.43
2023-04-26T15:22:02.403Z,12.88
2023-04-26T15:24:51.297Z,5.05
2023-04-26T15:27:21.623Z,5.78
2023-04-26T15:29:48.970Z,6.10
2023-04-26T15:32:16.286Z,11.27
2023-04-26T15:34:45.386Z,6.63
2023-04-26T15:37:12.597Z,6.43
2023-04-26T15:40:16.893Z,8.43
2023-04-26T15:42:49.415Z,7.63
2023-04-26T15:45:16.814Z,5.25
2023-04-26T15:47:45.824Z,8.10
2023-04-26T15:50:13.191Z,4.47
2023-04-26T15:52:41.153Z,7.90
2023-04-26T15:55:47.361Z,4.18
2023-04-26T15:58:23.975Z,8.75
2023-04-26T16:00:51.943Z,6.97
2023-04-26T16:03:19.662Z,10.75
2023-04-26T16:05:47.162Z,5.38
2023-04-26T16:08:39.290Z,8.77
2023-04-26T16:11:09.809Z,11.00
2023-04-26T16:13:37.655Z,9.15
2023-04-26T16:16:39.313Z,9.75
2023-04-26T16:19:08.068Z,9.15
2023-04-26T16:29:44.632Z,7.35
2023-04-26T16:32:12.297Z,6.18
2023-04-26T16:34:39.984Z,6.40
2023-04-26T17:18:47.704Z,12.90
2023-04-26T17:21:15.201Z,11.82
2023-04-26T17:23:43.727Z,15.88
2023-04-26T17:26:11.313Z,9.25
2023-04-26T17:28:44.819Z,22.27
2023-04-26T17:31:12.480Z,13.48
2023-04-26T17:33:39.971Z,15.63
2023-04-26T17:36:07.420Z,15.88
2023-04-26T17:38:34.636Z,12.80
2023-04-26T17:41:04.298Z,17.38
2023-04-26T17:43:31.444Z,20.95
2023-04-26T17:45:58.591Z,19.20
2023-04-26T17:48:25.855Z,19.10
2023-04-26T17:50:53.697Z,22.95
2023-04-26T17:53:21.693Z,24.77
2023-04-26T17:56:14.516Z,28.10
2023-04-26T17:58:41.594Z,20.42
2023-04-26T18:01:09.798Z,18.38
2023-04-26T18:03:37.079Z,20.42
2023-04-26T18:06:04.846Z,35.75
2023-04-26T18:08:31.907Z,55.10
2023-04-26T18:10:59.030Z,59.40
2023-04-26T18:13:26.343Z,55.13
2023-04-26T18:15:55.158Z,66.80
2023-04-26T18:18:22.183Z,50.60
2023-04-26T18:20:49.234Z,44.45
2023-04-26T18:23:16.572Z,45.95
2023-04-26T18:25:43.784Z,45.08
2023-04-26T18:28:10.927Z,50.55
2023-04-26T18:30:38.045Z,47.10
2023-04-26T18:33:05.238Z,37.15
2023-04-26T18:35:32.658Z,38.95
2023-04-26T18:37:59.866Z,38.65
2023-04-26T18:40:27.391Z,36.55
2023-04-26T18:42:54.515Z,40.35
2023-04-26T18:45:21.700Z,46.35
2023-04-26T18:47:48.995Z,44.58
2023-04-26T18:50:17.669Z,69.68
2023-04-26T18:52:44.952Z,61.78
2023-04-26T18:55:12.146Z,70.05
2023-04-26T18:57:39.260Z,72.20
2023-04-26T19:00:08.164Z,58.65
2023-04-26T19:02:40.172Z,59.50
2023-04-26T19:05:08.621Z,57.30
2023-04-26T19:07:36.186Z,57.53
2023-04-26T19:10:04.783Z,54.03
2023-04-26T19:12:32.186Z,187.23
2023-04-26T19:14:59.690Z,168.70
2023-04-26T19:17:27.227Z,215.95
2023-04-26T19:19:55.581Z,159.30
2023-04-26T19:22:27.407Z,164.23
2023-04-26T19:27:41.878Z,88.50
2023-04-26T19:30:11.788Z,127.65
2023-04-26T19:32:42.511Z,123.68
2023-04-26T19:35:10.176Z,132.75
2023-04-26T19:37:37.476Z,111.45
2023-04-26T19:40:08.409Z,125.93
2023-04-26T19:42:35.718Z,99.18
2023-04-26T19:45:03.225Z,102.43
2023-04-26T19:47:33.343Z,112.65
2023-04-26T19:50:00.636Z,169.40
2023-04-26T19:52:33.344Z,114.03
2023-04-26T19:55:06.492Z,85.80
2023-04-26T19:57:33.992Z,83.68
2023-04-26T20:00:01.471Z,100.75
2023-04-26T20:02:34.018Z,86.18
2023-04-26T20:05:01.452Z,140.52
2023-04-26T20:07:28.697Z,208.38
2023-04-26T20:09:55.850Z,141.55
2023-04-26T20:12:22.923Z,103.20
2023-04-26T20:14:50.417Z,94.60
2023-04-26T20:17:17.792Z,99.95
2023-04-26T20:19:44.969Z,90.35
2023-04-26T20:22:12.176Z,81.88
2023-04-26T20:24:39.369Z,79.22
2023-04-26T20:27:06.537Z,74.10
2023-04-26T20:29:33.640Z,56.92
2023-04-26T20:32:00.842Z,70.35
2023-04-26T20:34:28.084Z,73.15
2023-04-26T20:37:01.484Z,54.22
2023-04-26T20:39:29.702Z,58.85
2023-04-26T20:41:57.194Z,58.45
2023-04-26T20:44:24.419Z,57.40
2023-04-26T20:46:51.705Z,66.47
2023-04-26T20:49:18.969Z,65.50
2023-04-26T20:51:46.150Z,70.43
2023-04-26T20:54:13.272Z,88.47
2023-04-26T20:56:40.461Z,116.70
2023-04-26T20:59:08.571Z,100.78
2023-04-26T21:01:36.532Z,107.07
2023-04-26T21:04:03.822Z,101.20
2023-04-26T21:06:31.340Z,90.10
2023-04-26T21:08:58.460Z,99.97
2023-04-26T21:11:25.717Z,79.15
2023-04-26T21:13:54.277Z,68.35
2023-04-26T21:16:21.543Z,73.28
2023-04-26T21:19:14.320Z,62.70
2023-04-26T21:21:41.631Z,62.85
2023-04-26T21:24:08.878Z,78.20
2023-04-26T21:26:36.145Z,68.35
2023-04-26T21:29:03.578Z,64.68
2023-04-26T21:31:30.912Z,63.50
2023-04-26T21:33:58.498Z,55.25
2023-04-26T21:36:26.631Z,56.80
2023-04-26T21:38:53.743Z,51.95
2023-04-26T21:41:20.977Z,53.90
2023-04-26T21:43:48.136Z,69.50
2023-04-26T21:46:15.492Z,63.05
2023-04-26T21:48:42.797Z,64.50
2023-04-26T21:51:09.881Z,67.53
2023-04-26T21:53:37.044Z,67.60
2023-04-26T21:56:06.322Z,76.78
2023-04-26T21:58:36.930Z,63.58
2023-04-26T22:03:38.792Z,57.55
2023-04-26T22:06:06.373Z,55.05
2023-04-26T22:08:33.587Z,50.95
2023-04-26T22:11:00.817Z,49.13
2023-04-26T22:13:28.018Z,72.05
2023-04-26T22:15:55.141Z,69.13
2023-04-26T22:18:22.490Z,62.40
2023-04-26T22:20:49.690Z,56.50
2023-04-26T22:23:16.959Z,57.13
2023-04-26T22:25:44.178Z,54.85
2023-04-26T22:28:11.432Z,57.88
2023-04-26T22:30:38.617Z,72.28
2023-04-26T22:33:07.189Z,73.47
2023-04-26T22:35:34.919Z,76.03
2023-04-26T22:38:02.063Z,73.25
2023-04-26T22:40:29.227Z,83.97
2023-04-26T22:42:56.522Z,87.40
2023-04-26T22:45:26.093Z,79.20
2023-04-26T22:47:53.634Z,78.18
2023-04-26T22:50:27.186Z,69.22
2023-04-26T22:52:59.193Z,54.85
2023-04-26T22:55:38.536Z,50.67
2023-04-26T22:58:22.981Z,49.70
2023-04-26T23:00:50.242Z,52.85
2023-04-26T23:03:17.447Z,58.78
2023-04-26T23:05:45.787Z,47.63
2023-04-26T23:08:13.011Z,50.65
2023-04-26T23:10:40.367Z,59.42
2023-04-26T23:13:07.493Z,62.67
2023-04-26T23:15:34.633Z,59.05
2023-04-26T23:18:01.763Z,49.97
2023-04-26T23:20:29.127Z,51.95
2023-04-26T23:22:56.264Z,61.47
2023-04-26T23:25:23.532Z,62.40
2023-04-26T23:27:51.093Z,56.65
2023-04-26T23:30:18.456Z,53.88
2023-04-26T23:32:45.669Z,57.85
2023-04-26T23:35:12.947Z,64.50
2023-04-26T23:37:40.196Z,59.50
2023-04-26T23:40:09.480Z,62.55
2023-04-26T23:42:37.064Z,57.58
2023-04-26T23:45:04.803Z,58.13
2023-04-26T23:47:32.265Z,54.70
2023-04-26T23:49:59.526Z,63.72
2023-04-26T23:52:26.997Z,54.72
2023-04-26T23:54:54.135Z,57.13
2023-04-26T23:57:21.475Z,64.22
2023-04-26T23:59:48.760Z,60.50
